»·PEaware :: TEXAN18 KRND-KRND

TEXAN18 :: KRND-KRND

FLIGHT INFORMATION

Flight Status: Arrived
Operator: Unknown
More flights by this operator :: More flights under this callsign
Pilot: Indie I. (23339)
Aircraft: BEECH AIRCRAFT T-6A TEXAN
(TEX2)
More flights by this aircraft type
Origin: KRND Randolph AFB
United States
Destination: KRND Randolph AFB
United States
More flights between these airports :: More routes between these airports
Route: DIRECT
File this flight plan on PilotEdge
Remarks: +CW / Full IAP at KHYI ILS 13
Altitude:
(Current/Filed)
5,000ft
Speed:
(Current/Filed)
200kts
Departed: 17-Mar-20 06:26 AM
Arrived: 17-Mar-20 07:41 AM
Distance/Time
Traveled:
0nm/1:15
Distance/Time
To Go:
Arrived

Flight Plot

Page will automatically refresh every two minutes.

Flight plan parsing failed; only flown route is shown


Map Options




Map Legend


Flown Route
Filed Route
Departure Airport
Arrival Airport
Navaid (VOR, NDB)
Fix

Horizontal Profiles

Position Reports

Time Latitude Longitude Heading Altitude Ground
Speed
17-Mar-20 06:08 29.531467 -98.287992 147 765ft 0kts
17-Mar-20 06:09 29.531465 -98.287991 147 765ft 0kts
17-Mar-20 06:10 29.531463 -98.287989 147 765ft 0kts
17-Mar-20 06:11 29.531461 -98.287988 147 765ft 0kts
17-Mar-20 06:12 29.531459 -98.287987 147 765ft 0kts
17-Mar-20 06:13 29.531458 -98.287985 147 765ft 0kts
17-Mar-20 06:14 29.531456 -98.287984 147 765ft 0kts
17-Mar-20 06:15 29.531454 -98.287983 147 765ft 0kts
17-Mar-20 06:16 29.531452 -98.287982 147 765ft 0kts
17-Mar-20 06:17 29.531450 -98.287980 147 765ft 0kts
17-Mar-20 06:18 29.531448 -98.287978 147 765ft 0kts
17-Mar-20 06:19 29.531446 -98.287977 147 765ft 0kts
17-Mar-20 06:20 29.531445 -98.287976 147 765ft 0kts
17-Mar-20 06:21 29.531125 -98.288204 245 765ft 6kts
17-Mar-20 06:22 29.533470 -98.290173 328 765ft 18kts
17-Mar-20 06:23 29.534773 -98.291718 239 765ft 0kts
17-Mar-20 06:24 29.534706 -98.292569 247 765ft 12kts
17-Mar-20 06:25 29.517771 -98.281988 154 1192ft 165kts
17-Mar-20 06:26 29.468004 -98.269914 170 3664ft 188kts
17-Mar-20 06:27 29.412893 -98.257898 199 4842ft 227kts
17-Mar-20 06:28 29.423298 -98.302131 3 5149ft 203kts
17-Mar-20 06:29 29.481653 -98.294696 7 5133ft 208kts
17-Mar-20 06:30 29.540001 -98.284554 9 5018ft 212kts
17-Mar-20 06:31 29.598445 -98.271831 15 4855ft 214kts
17-Mar-20 06:32 29.656239 -98.266084 358 5068ft 199kts
17-Mar-20 06:33 29.713619 -98.266448 359 5010ft 208kts
17-Mar-20 06:34 29.765748 -98.246379 54 4940ft 209kts
17-Mar-20 06:35 29.803603 -98.195486 49 4935ft 211kts
17-Mar-20 06:36 29.842668 -98.144404 48 4837ft 211kts
17-Mar-20 06:37 29.847649 -98.137854 48 4854ft 211kts
17-Mar-20 06:38 29.847649 -98.137854 48 4854ft 211kts
17-Mar-20 06:39 29.847649 -98.137854 48 4854ft 211kts
17-Mar-20 06:40 29.847649 -98.137854 48 4854ft 211kts
17-Mar-20 06:41 29.847649 -98.137854 48 4854ft 211kts
17-Mar-20 06:42 29.847649 -98.137854 48 4854ft 211kts
17-Mar-20 06:43 29.847649 -98.137854 48 4854ft 211kts
17-Mar-20 06:44 29.847649 -98.137854 48 4854ft 211kts
17-Mar-20 06:45 29.847649 -98.137854 48 4854ft 211kts
17-Mar-20 06:46 29.847649 -98.137854 48 4854ft 211kts
17-Mar-20 06:47 29.847649 -98.137854 48 4854ft 211kts
17-Mar-20 06:48 29.847649 -98.137854 48 4854ft 211kts
17-Mar-20 06:49 29.847649 -98.137854 48 4854ft 211kts
17-Mar-20 06:50 29.847649 -98.137854 48 4854ft 211kts
17-Mar-20 06:51 29.847649 -98.137854 48 4854ft 211kts
17-Mar-20 06:52 29.847649 -98.137854 48 4854ft 211kts
17-Mar-20 06:53 29.888404 -98.114129 23 5077ft 166kts
17-Mar-20 06:54 29.927295 -98.086384 76 4839ft 172kts
17-Mar-20 06:55 29.899502 -98.084887 226 5053ft 156kts
17-Mar-20 06:56 29.864283 -98.118855 224 4967ft 168kts
17-Mar-20 06:57 29.832871 -98.158020 257 4952ft 171kts
17-Mar-20 06:58 29.862537 -98.163826 52 5004ft 166kts
17-Mar-20 06:59 29.890790 -98.120042 54 4891ft 174kts
17-Mar-20 07:00 29.913120 -98.073017 102 4851ft 174kts
17-Mar-20 07:01 29.880056 -98.076346 233 5080ft 162kts
17-Mar-20 07:02 29.851117 -98.118674 232 5016ft 169kts
17-Mar-20 07:03 29.827754 -98.164991 280 5061ft 169kts
17-Mar-20 07:04 29.860809 -98.154802 53 4998ft 174kts
17-Mar-20 07:05 29.887034 -98.106377 59 4273ft 179kts
17-Mar-20 07:06 29.912044 -98.056955 59 3426ft 180kts
17-Mar-20 07:07 29.938361 -98.009600 54 3377ft 175kts
17-Mar-20 07:08 29.971326 -97.970355 38 3430ft 168kts
17-Mar-20 07:09 30.003047 -97.996311 303 3676ft 161kts
17-Mar-20 07:10 30.037728 -98.034072 349 3169ft 178kts
17-Mar-20 07:11 30.084449 -98.040660 313 3182ft 170kts
17-Mar-20 07:12 30.064722 -98.066323 151 3245ft 145kts
17-Mar-20 07:13 30.033738 -98.041562 133 2738ft 124kts
17-Mar-20 07:14 30.012708 -98.011140 129 2748ft 121kts
17-Mar-20 07:15 29.989227 -97.983067 131 2718ft 125kts
17-Mar-20 07:16 29.966950 -97.954991 138 2705ft 119kts
17-Mar-20 07:17 29.943591 -97.928190 132 2082ft 117kts
17-Mar-20 07:18 29.920847 -97.898759 132 1294ft 122kts
17-Mar-20 07:19 29.898010 -97.871299 132 679ft 117kts
17-Mar-20 07:20 29.875087 -97.843280 135 1680ft 154kts
17-Mar-20 07:21 29.840521 -97.800180 131 3107ft 237kts
17-Mar-20 07:22 29.799082 -97.749116 149 2877ft 208kts
17-Mar-20 07:23 29.774092 -97.788568 274 3518ft 213kts
17-Mar-20 07:24 29.777298 -97.856255 272 3456ft 209kts
17-Mar-20 07:25 29.780029 -97.922965 272 3385ft 210kts
17-Mar-20 07:26 29.782781 -97.988729 272 3592ft 201kts
17-Mar-20 07:27 29.784543 -98.054938 270 3500ft 208kts
17-Mar-20 07:28 29.784712 -98.121518 270 3541ft 206kts
17-Mar-20 07:29 29.786781 -98.187658 274 3524ft 207kts
17-Mar-20 07:30 29.792410 -98.253665 277 3550ft 207kts
17-Mar-20 07:31 29.780133 -98.312676 237 3647ft 190kts
17-Mar-20 07:32 29.757094 -98.367048 245 3484ft 190kts
17-Mar-20 07:33 29.721246 -98.400380 184 3379ft 181kts
17-Mar-20 07:34 29.678157 -98.389300 136 3103ft 152kts
17-Mar-20 07:35 29.648462 -98.366179 152 3124ft 116kts
17-Mar-20 07:36 29.619670 -98.350979 147 2606ft 112kts
17-Mar-20 07:37 29.593810 -98.331321 152 2235ft 117kts
17-Mar-20 07:38 29.564291 -98.312307 150 1528ft 119kts
17-Mar-20 07:39 29.535407 -98.293314 150 793ft 112kts
17-Mar-20 07:40 29.522320 -98.284052 61 765ft 2kts
17-Mar-20 07:41 29.522399 -98.283955 43 765ft 0kts
17-Mar-20 07:42 29.522400 -98.283953 43 765ft 0kts

Navigation Log

Ident Type
Flight plan parsing failed, navigation log unavailable